sensor_id;sensor_type;location;lat;lon;timestamp;P1;durP1;ratioP1;P2;durP2;ratioP2
53108;SDS011;39007;53.090;6.074;2022-10-16T00:02:19;11.38;;;3.10;;
53108;SDS011;39007;53.090;6.074;2022-10-16T00:04:45;10.02;;;2.70;;
53108;SDS011;39007;53.090;6.074;2022-10-16T00:07:11;11.15;;;2.75;;
53108;SDS011;39007;53.090;6.074;2022-10-16T00:09:38;10.10;;;2.55;;
53108;SDS011;39007;53.090;6.074;2022-10-16T00:12:04;8.20;;;2.50;;
53108;SDS011;39007;53.090;6.074;2022-10-16T00:14:31;9.13;;;2.70;;
53108;SDS011;39007;53.090;6.074;2022-10-16T00:16:57;10.90;;;2.60;;
53108;SDS011;39007;53.090;6.074;2022-10-16T00:19:23;9.20;;;2.60;;
53108;SDS011;39007;53.090;6.074;2022-10-16T00:21:50;8.32;;;2.20;;
53108;SDS011;39007;53.090;6.074;2022-10-16T00:24:16;8.32;;;2.55;;
53108;SDS011;39007;53.090;6.074;2022-10-16T00:26:42;14.68;;;2.67;;
53108;SDS011;39007;53.090;6.074;2022-10-16T00:29:08;8.73;;;2.15;;
53108;SDS011;39007;53.090;6.074;2022-10-16T00:31:34;9.50;;;2.40;;
53108;SDS011;39007;53.090;6.074;2022-10-16T00:34:00;10.55;;;2.40;;
53108;SDS011;39007;53.090;6.074;2022-10-16T00:36:27;10.88;;;2.80;;
53108;SDS011;39007;53.090;6.074;2022-10-16T00:38:54;9.55;;;2.28;;
53108;SDS011;39007;53.090;6.074;2022-10-16T00:41:20;11.45;;;2.70;;
53108;SDS011;39007;53.090;6.074;2022-10-16T00:43:51;11.00;;;2.45;;
53108;SDS011;39007;53.090;6.074;2022-10-16T00:46:22;10.10;;;2.50;;
53108;SDS011;39007;53.090;6.074;2022-10-16T00:48:56;8.95;;;2.75;;
53108;SDS011;39007;53.090;6.074;2022-10-16T00:51:25;11.85;;;2.72;;
53108;SDS011;39007;53.090;6.074;2022-10-16T00:53:53;8.68;;;2.20;;
53108;SDS011;39007;53.090;6.074;2022-10-16T00:56:20;6.28;;;2.08;;
53108;SDS011;39007;53.090;6.074;2022-10-16T00:58:46;8.85;;;2.20;;
53108;SDS011;39007;53.090;6.074;2022-10-16T01:01:12;6.97;;;2.08;;
53108;SDS011;39007;53.090;6.074;2022-10-16T01:03:39;7.10;;;2.03;;
53108;SDS011;39007;53.090;6.074;2022-10-16T01:08:54;9.55;;;2.10;;
53108;SDS011;39007;53.090;6.074;2022-10-16T01:11:33;8.80;;;2.50;;
53108;SDS011;39007;53.090;6.074;2022-10-16T01:14:00;9.98;;;2.25;;
53108;SDS011;39007;53.090;6.074;2022-10-16T01:19:12;8.45;;;2.30;;
53108;SDS011;39007;53.090;6.074;2022-10-16T01:21:40;7.97;;;2.33;;
53108;SDS011;39007;53.090;6.074;2022-10-16T01:24:20;8.45;;;2.08;;
53108;SDS011;39007;53.090;6.074;2022-10-16T01:30:14;8.77;;;2.10;;
53108;SDS011;39007;53.090;6.074;2022-10-16T01:32:20;7.35;;;2.10;;
53108;SDS011;39007;53.090;6.074;2022-10-16T01:34:51;9.45;;;2.08;;
53108;SDS011;39007;53.090;6.074;2022-10-16T01:37:21;9.02;;;2.25;;
53108;SDS011;39007;53.090;6.074;2022-10-16T01:39:48;7.60;;;2.30;;
53108;SDS011;39007;53.090;6.074;2022-10-16T01:42:20;7.57;;;2.42;;
53108;SDS011;39007;53.090;6.074;2022-10-16T01:44:48;6.70;;;2.22;;
53108;SDS011;39007;53.090;6.074;2022-10-16T01:47:15;7.75;;;2.38;;
53108;SDS011;39007;53.090;6.074;2022-10-16T01:49:41;6.38;;;2.10;;
53108;SDS011;39007;53.090;6.074;2022-10-16T01:52:10;9.00;;;2.50;;
53108;SDS011;39007;53.090;6.074;2022-10-16T01:54:37;6.93;;;2.35;;
53108;SDS011;39007;53.090;6.074;2022-10-16T01:57:04;6.78;;;2.10;;
53108;SDS011;39007;53.090;6.074;2022-10-16T01:59:31;7.90;;;2.22;;
53108;SDS011;39007;53.090;6.074;2022-10-16T02:02:01;12.80;;;2.38;;
53108;SDS011;39007;53.090;6.074;2022-10-16T02:04:31;7.30;;;2.95;;
53108;SDS011;39007;53.090;6.074;2022-10-16T02:06:58;8.25;;;2.60;;
53108;SDS011;39007;53.090;6.074;2022-10-16T02:09:25;6.85;;;2.33;;
53108;SDS011;39007;53.090;6.074;2022-10-16T02:11:52;8.57;;;2.25;;
53108;SDS011;39007;53.090;6.074;2022-10-16T02:14:20;6.50;;;2.25;;
53108;SDS011;39007;53.090;6.074;2022-10-16T02:16:49;8.55;;;2.20;;
53108;SDS011;39007;53.090;6.074;2022-10-16T02:19:16;8.52;;;2.53;;
53108;SDS011;39007;53.090;6.074;2022-10-16T02:21:57;8.80;;;2.60;;
53108;SDS011;39007;53.090;6.074;2022-10-16T02:24:32;8.25;;;2.20;;
53108;SDS011;39007;53.090;6.074;2022-10-16T02:29:28;7.53;;;2.10;;
53108;SDS011;39007;53.090;6.074;2022-10-16T02:31:58;5.47;;;2.03;;
53108;SDS011;39007;53.090;6.074;2022-10-16T02:34:26;10.57;;;2.60;;
53108;SDS011;39007;53.090;6.074;2022-10-16T02:36:53;6.20;;;2.17;;
53108;SDS011;39007;53.090;6.074;2022-10-16T02:39:20;6.18;;;2.28;;
53108;SDS011;39007;53.090;6.074;2022-10-16T02:41:46;6.90;;;2.30;;
53108;SDS011;39007;53.090;6.074;2022-10-16T02:44:13;5.50;;;2.22;;
53108;SDS011;39007;53.090;6.074;2022-10-16T02:46:39;13.48;;;2.65;;
53108;SDS011;39007;53.090;6.074;2022-10-16T02:49:05;7.50;;;2.55;;
53108;SDS011;39007;53.090;6.074;2022-10-16T02:51:31;9.77;;;2.50;;
53108;SDS011;39007;53.090;6.074;2022-10-16T02:53:57;7.75;;;2.35;;
53108;SDS011;39007;53.090;6.074;2022-10-16T02:56:23;6.55;;;2.40;;
53108;SDS011;39007;53.090;6.074;2022-10-16T02:58:49;8.77;;;2.30;;
53108;SDS011;39007;53.090;6.074;2022-10-16T03:01:15;9.57;;;2.55;;
53108;SDS011;39007;53.090;6.074;2022-10-16T03:03:42;8.02;;;2.30;;
53108;SDS011;39007;53.090;6.074;2022-10-16T03:06:08;7.03;;;2.25;;
53108;SDS011;39007;53.090;6.074;2022-10-16T03:08:34;9.52;;;2.47;;
53108;SDS011;39007;53.090;6.074;2022-10-16T03:11:00;4.75;;;2.25;;
53108;SDS011;39007;53.090;6.074;2022-10-16T03:13:27;8.32;;;2.63;;
53108;SDS011;39007;53.090;6.074;2022-10-16T03:15:56;6.22;;;2.40;;
53108;SDS011;39007;53.090;6.074;2022-10-16T03:18:22;6.57;;;2.30;;
53108;SDS011;39007;53.090;6.074;2022-10-16T03:20:48;7.22;;;2.45;;
53108;SDS011;39007;53.090;6.074;2022-10-16T03:23:15;5.85;;;2.25;;
53108;SDS011;39007;53.090;6.074;2022-10-16T03:25:41;7.07;;;2.30;;
53108;SDS011;39007;53.090;6.074;2022-10-16T03:28:07;6.97;;;2.20;;
53108;SDS011;39007;53.090;6.074;2022-10-16T03:30:33;6.53;;;2.33;;
53108;SDS011;39007;53.090;6.074;2022-10-16T03:32:59;7.90;;;2.30;;
53108;SDS011;39007;53.090;6.074;2022-10-16T03:35:25;4.25;;;1.98;;
53108;SDS011;39007;53.090;6.074;2022-10-16T03:37:51;6.57;;;2.20;;
53108;SDS011;39007;53.090;6.074;2022-10-16T03:40:18;6.32;;;2.35;;
53108;SDS011;39007;53.090;6.074;2022-10-16T03:42:44;4.28;;;2.00;;
53108;SDS011;39007;53.090;6.074;2022-10-16T03:45:10;6.65;;;2.30;;
53108;SDS011;39007;53.090;6.074;2022-10-16T03:47:37;6.03;;;2.20;;
53108;SDS011;39007;53.090;6.074;2022-10-16T03:50:03;5.00;;;2.30;;
53108;SDS011;39007;53.090;6.074;2022-10-16T03:52:30;4.95;;;2.00;;
53108;SDS011;39007;53.090;6.074;2022-10-16T03:54:57;7.35;;;2.60;;
53108;SDS011;39007;53.090;6.074;2022-10-16T03:57:23;6.35;;;2.10;;
53108;SDS011;39007;53.090;6.074;2022-10-16T03:59:49;6.55;;;2.17;;
53108;SDS011;39007;53.090;6.074;2022-10-16T04:02:15;7.50;;;2.15;;
53108;SDS011;39007;53.090;6.074;2022-10-16T04:04:42;5.38;;;2.03;;
53108;SDS011;39007;53.090;6.074;2022-10-16T04:07:08;5.63;;;2.05;;
53108;SDS011;39007;53.090;6.074;2022-10-16T04:09:34;5.68;;;2.00;;
53108;SDS011;39007;53.090;6.074;2022-10-16T04:12:00;7.93;;;2.20;;
53108;SDS011;39007;53.090;6.074;2022-10-16T04:14:26;6.63;;;2.10;;
53108;SDS011;39007;53.090;6.074;2022-10-16T04:16:52;8.13;;;2.20;;
53108;SDS011;39007;53.090;6.074;2022-10-16T04:19:18;4.75;;;2.15;;
53108;SDS011;39007;53.090;6.074;2022-10-16T04:21:44;8.00;;;2.08;;
53108;SDS011;39007;53.090;6.074;2022-10-16T04:24:10;7.47;;;2.05;;
53108;SDS011;39007;53.090;6.074;2022-10-16T04:26:37;7.13;;;2.40;;
53108;SDS011;39007;53.090;6.074;2022-10-16T04:29:03;9.02;;;2.17;;
53108;SDS011;39007;53.090;6.074;2022-10-16T04:31:29;7.22;;;2.30;;
53108;SDS011;39007;53.090;6.074;2022-10-16T04:33:55;5.68;;;2.50;;
53108;SDS011;39007;53.090;6.074;2022-10-16T04:36:21;4.82;;;2.10;;
53108;SDS011;39007;53.090;6.074;2022-10-16T04:38:47;6.13;;;2.08;;
53108;SDS011;39007;53.090;6.074;2022-10-16T04:41:14;7.82;;;2.65;;
53108;SDS011;39007;53.090;6.074;2022-10-16T04:43:40;7.15;;;2.30;;
53108;SDS011;39007;53.090;6.074;2022-10-16T04:46:06;5.60;;;2.20;;
53108;SDS011;39007;53.090;6.074;2022-10-16T04:48:32;7.30;;;1.95;;
53108;SDS011;39007;53.090;6.074;2022-10-16T04:50:58;10.43;;;2.50;;
53108;SDS011;39007;53.090;6.074;2022-10-16T04:53:25;9.77;;;2.28;;
53108;SDS011;39007;53.090;6.074;2022-10-16T04:55:51;10.30;;;2.38;;
53108;SDS011;39007;53.090;6.074;2022-10-16T04:58:17;9.55;;;2.63;;
53108;SDS011;39007;53.090;6.074;2022-10-16T05:00:43;9.73;;;2.90;;
53108;SDS011;39007;53.090;6.074;2022-10-16T05:03:11;6.63;;;2.13;;
53108;SDS011;39007;53.090;6.074;2022-10-16T05:05:41;6.10;;;2.42;;
53108;SDS011;39007;53.090;6.074;2022-10-16T05:08:08;8.00;;;2.38;;
53108;SDS011;39007;53.090;6.074;2022-10-16T05:10:34;7.53;;;2.58;;
53108;SDS011;39007;53.090;6.074;2022-10-16T05:13:00;6.63;;;2.40;;
53108;SDS011;39007;53.090;6.074;2022-10-16T05:15:26;5.57;;;2.30;;
53108;SDS011;39007;53.090;6.074;2022-10-16T05:17:54;9.63;;;2.70;;
53108;SDS011;39007;53.090;6.074;2022-10-16T05:20:20;7.43;;;2.63;;
53108;SDS011;39007;53.090;6.074;2022-10-16T05:22:47;5.75;;;2.35;;
53108;SDS011;39007;53.090;6.074;2022-10-16T05:25:13;8.52;;;2.67;;
53108;SDS011;39007;53.090;6.074;2022-10-16T05:27:39;6.90;;;2.78;;
53108;SDS011;39007;53.090;6.074;2022-10-16T05:30:05;9.85;;;3.00;;
53108;SDS011;39007;53.090;6.074;2022-10-16T05:32:32;7.78;;;3.03;;
53108;SDS011;39007;53.090;6.074;2022-10-16T05:34:58;8.18;;;2.88;;
53108;SDS011;39007;53.090;6.074;2022-10-16T05:37:25;7.20;;;2.70;;
53108;SDS011;39007;53.090;6.074;2022-10-16T05:39:51;6.55;;;2.75;;
53108;SDS011;39007;53.090;6.074;2022-10-16T05:42:17;13.93;;;3.20;;
53108;SDS011;39007;53.090;6.074;2022-10-16T05:44:44;8.70;;;2.70;;
53108;SDS011;39007;53.090;6.074;2022-10-16T05:47:10;8.80;;;2.92;;
53108;SDS011;39007;53.090;6.074;2022-10-16T05:49:39;10.23;;;3.72;;
53108;SDS011;39007;53.090;6.074;2022-10-16T05:52:05;6.90;;;3.40;;
53108;SDS011;39007;53.090;6.074;2022-10-16T05:54:31;6.88;;;3.42;;
53108;SDS011;39007;53.090;6.074;2022-10-16T05:56:57;9.48;;;3.30;;
53108;SDS011;39007;53.090;6.074;2022-10-16T05:59:23;10.48;;;3.55;;
53108;SDS011;39007;53.090;6.074;2022-10-16T06:01:49;9.65;;;3.60;;
53108;SDS011;39007;53.090;6.074;2022-10-16T06:04:15;9.23;;;3.15;;
53108;SDS011;39007;53.090;6.074;2022-10-16T06:06:41;10.35;;;3.40;;
53108;SDS011;39007;53.090;6.074;2022-10-16T06:09:08;7.60;;;3.08;;
53108;SDS011;39007;53.090;6.074;2022-10-16T06:11:35;6.47;;;3.38;;
53108;SDS011;39007;53.090;6.074;2022-10-16T06:14:04;11.05;;;3.05;;
53108;SDS011;39007;53.090;6.074;2022-10-16T06:16:34;7.43;;;3.15;;
53108;SDS011;39007;53.090;6.074;2022-10-16T06:19:00;9.00;;;3.30;;
53108;SDS011;39007;53.090;6.074;2022-10-16T06:21:27;10.25;;;3.60;;
53108;SDS011;39007;53.090;6.074;2022-10-16T06:23:54;10.07;;;3.40;;
53108;SDS011;39007;53.090;6.074;2022-10-16T06:26:22;8.88;;;3.10;;
53108;SDS011;39007;53.090;6.074;2022-10-16T06:28:48;9.52;;;3.05;;
53108;SDS011;39007;53.090;6.074;2022-10-16T06:31:15;7.93;;;3.00;;
53108;SDS011;39007;53.090;6.074;2022-10-16T06:33:41;7.28;;;2.88;;
53108;SDS011;39007;53.090;6.074;2022-10-16T06:36:09;10.77;;;3.30;;
53108;SDS011;39007;53.090;6.074;2022-10-16T06:38:36;8.50;;;2.90;;
53108;SDS011;39007;53.090;6.074;2022-10-16T06:41:02;11.23;;;3.22;;
53108;SDS011;39007;53.090;6.074;2022-10-16T06:43:29;12.02;;;3.08;;
53108;SDS011;39007;53.090;6.074;2022-10-16T06:46:00;7.97;;;3.28;;
53108;SDS011;39007;53.090;6.074;2022-10-16T06:48:27;9.90;;;2.72;;
53108;SDS011;39007;53.090;6.074;2022-10-16T06:53:29;10.48;;;3.08;;
53108;SDS011;39007;53.090;6.074;2022-10-16T06:55:56;6.22;;;2.60;;
53108;SDS011;39007;53.090;6.074;2022-10-16T06:58:22;8.88;;;2.80;;
53108;SDS011;39007;53.090;6.074;2022-10-16T07:00:48;7.47;;;2.83;;
53108;SDS011;39007;53.090;6.074;2022-10-16T07:03:15;9.05;;;2.85;;
53108;SDS011;39007;53.090;6.074;2022-10-16T07:05:44;9.77;;;2.97;;
53108;SDS011;39007;53.090;6.074;2022-10-16T07:08:10;7.80;;;2.70;;
53108;SDS011;39007;53.090;6.074;2022-10-16T07:10:36;12.65;;;3.20;;
53108;SDS011;39007;53.090;6.074;2022-10-16T07:13:02;6.78;;;2.55;;
53108;SDS011;39007;53.090;6.074;2022-10-16T07:15:28;7.30;;;2.65;;
53108;SDS011;39007;53.090;6.074;2022-10-16T07:17:55;9.68;;;2.97;;
53108;SDS011;39007;53.090;6.074;2022-10-16T07:20:21;9.77;;;3.05;;
53108;SDS011;39007;53.090;6.074;2022-10-16T07:22:47;7.20;;;2.60;;
53108;SDS011;39007;53.090;6.074;2022-10-16T07:25:24;8.85;;;2.72;;
53108;SDS011;39007;53.090;6.074;2022-10-16T07:27:50;8.77;;;3.13;;
53108;SDS011;39007;53.090;6.074;2022-10-16T07:30:16;11.02;;;3.08;;
53108;SDS011;39007;53.090;6.074;2022-10-16T07:32:42;11.73;;;3.03;;
53108;SDS011;39007;53.090;6.074;2022-10-16T07:35:08;8.93;;;3.25;;
53108;SDS011;39007;53.090;6.074;2022-10-16T07:37:34;9.63;;;3.00;;
53108;SDS011;39007;53.090;6.074;2022-10-16T07:40:00;8.07;;;3.17;;
53108;SDS011;39007;53.090;6.074;2022-10-16T07:42:27;9.15;;;3.13;;
53108;SDS011;39007;53.090;6.074;2022-10-16T07:44:53;8.52;;;2.60;;
53108;SDS011;39007;53.090;6.074;2022-10-16T07:47:19;8.20;;;3.05;;
53108;SDS011;39007;53.090;6.074;2022-10-16T07:49:46;9.18;;;2.85;;
53108;SDS011;39007;53.090;6.074;2022-10-16T07:52:12;9.68;;;3.00;;
53108;SDS011;39007;53.090;6.074;2022-10-16T07:54:38;6.75;;;2.78;;
53108;SDS011;39007;53.090;6.074;2022-10-16T07:57:04;11.32;;;3.38;;
53108;SDS011;39007;53.090;6.074;2022-10-16T07:59:30;8.20;;;2.75;;
53108;SDS011;39007;53.090;6.074;2022-10-16T08:01:56;9.40;;;2.60;;
53108;SDS011;39007;53.090;6.074;2022-10-16T08:04:22;8.82;;;3.15;;
53108;SDS011;39007;53.090;6.074;2022-10-16T08:06:48;8.45;;;3.08;;
53108;SDS011;39007;53.090;6.074;2022-10-16T08:09:14;8.50;;;3.00;;
53108;SDS011;39007;53.090;6.074;2022-10-16T08:11:41;10.57;;;2.75;;
53108;SDS011;39007;53.090;6.074;2022-10-16T08:14:07;9.75;;;3.03;;
53108;SDS011;39007;53.090;6.074;2022-10-16T08:16:33;6.88;;;2.33;;
53108;SDS011;39007;53.090;6.074;2022-10-16T08:18:59;10.65;;;2.30;;
53108;SDS011;39007;53.090;6.074;2022-10-16T08:21:25;8.80;;;2.53;;
53108;SDS011;39007;53.090;6.074;2022-10-16T08:23:52;7.97;;;2.20;;
53108;SDS011;39007;53.090;6.074;2022-10-16T08:26:20;6.78;;;2.08;;
53108;SDS011;39007;53.090;6.074;2022-10-16T08:28:48;12.73;;;2.47;;
53108;SDS011;39007;53.090;6.074;2022-10-16T08:31:15;9.52;;;2.40;;
53108;SDS011;39007;53.090;6.074;2022-10-16T08:33:43;12.20;;;2.58;;
53108;SDS011;39007;53.090;6.074;2022-10-16T08:36:10;8.15;;;2.30;;
53108;SDS011;39007;53.090;6.074;2022-10-16T08:38:37;7.97;;;2.15;;
53108;SDS011;39007;53.090;6.074;2022-10-16T08:44:03;7.78;;;2.13;;
53108;SDS011;39007;53.090;6.074;2022-10-16T08:46:41;8.50;;;2.47;;
53108;SDS011;39007;53.090;6.074;2022-10-16T08:49:10;9.48;;;2.15;;
53108;SDS011;39007;53.090;6.074;2022-10-16T08:51:38;6.82;;;1.90;;
53108;SDS011;39007;53.090;6.074;2022-10-16T08:54:05;8.40;;;2.30;;
53108;SDS011;39007;53.090;6.074;2022-10-16T08:56:34;12.48;;;2.78;;
53108;SDS011;39007;53.090;6.074;2022-10-16T08:59:00;12.82;;;2.60;;
53108;SDS011;39007;53.090;6.074;2022-10-16T09:01:35;10.65;;;2.75;;
53108;SDS011;39007;53.090;6.074;2022-10-16T09:04:07;7.38;;;2.25;;
53108;SDS011;39007;53.090;6.074;2022-10-16T09:06:46;9.20;;;2.28;;
53108;SDS011;39007;53.090;6.074;2022-10-16T09:14:32;9.27;;;2.78;;
53108;SDS011;39007;53.090;6.074;2022-10-16T09:17:25;17.23;;;3.20;;
53108;SDS011;39007;53.090;6.074;2022-10-16T09:22:32;11.88;;;2.55;;
53108;SDS011;39007;53.090;6.074;2022-10-16T09:24:59;14.02;;;2.65;;
53108;SDS011;39007;53.090;6.074;2022-10-16T09:27:26;13.27;;;2.95;;
53108;SDS011;39007;53.090;6.074;2022-10-16T09:29:53;16.55;;;3.10;;
53108;SDS011;39007;53.090;6.074;2022-10-16T09:32:19;10.10;;;2.50;;
53108;SDS011;39007;53.090;6.074;2022-10-16T09:34:53;13.27;;;2.60;;
53108;SDS011;39007;53.090;6.074;2022-10-16T09:37:21;10.97;;;2.63;;
53108;SDS011;39007;53.090;6.074;2022-10-16T09:39:49;15.32;;;2.90;;
53108;SDS011;39007;53.090;6.074;2022-10-16T09:42:16;12.43;;;2.50;;
53108;SDS011;39007;53.090;6.074;2022-10-16T09:44:46;13.73;;;2.50;;
53108;SDS011;39007;53.090;6.074;2022-10-16T09:47:14;12.38;;;2.92;;
53108;SDS011;39007;53.090;6.074;2022-10-16T09:49:53;15.40;;;3.13;;
53108;SDS011;39007;53.090;6.074;2022-10-16T09:52:21;12.82;;;3.00;;
53108;SDS011;39007;53.090;6.074;2022-10-16T09:54:51;15.05;;;2.50;;
53108;SDS011;39007;53.090;6.074;2022-10-16T09:57:18;13.38;;;3.33;;
53108;SDS011;39007;53.090;6.074;2022-10-16T09:59:48;14.27;;;2.88;;
53108;SDS011;39007;53.090;6.074;2022-10-16T10:02:16;15.48;;;3.13;;
53108;SDS011;39007;53.090;6.074;2022-10-16T10:04:48;16.23;;;3.42;;
53108;SDS011;39007;53.090;6.074;2022-10-16T10:07:18;12.20;;;2.90;;
53108;SDS011;39007;53.090;6.074;2022-10-16T10:09:46;14.05;;;2.92;;
53108;SDS011;39007;53.090;6.074;2022-10-16T10:14:48;17.50;;;3.42;;
53108;SDS011;39007;53.090;6.074;2022-10-16T10:17:22;15.10;;;2.50;;
53108;SDS011;39007;53.090;6.074;2022-10-16T10:19:49;16.33;;;3.03;;
53108;SDS011;39007;53.090;6.074;2022-10-16T10:22:26;13.15;;;2.65;;
53108;SDS011;39007;53.090;6.074;2022-10-16T10:27:56;15.57;;;3.10;;
53108;SDS011;39007;53.090;6.074;2022-10-16T10:30:30;14.30;;;2.67;;
53108;SDS011;39007;53.090;6.074;2022-10-16T10:33:13;15.70;;;3.15;;
53108;SDS011;39007;53.090;6.074;2022-10-16T10:38:25;14.13;;;3.33;;
53108;SDS011;39007;53.090;6.074;2022-10-16T10:46:36;16.20;;;3.33;;
53108;SDS011;39007;53.090;6.074;2022-10-16T10:51:53;16.38;;;3.38;;
53108;SDS011;39007;53.090;6.074;2022-10-16T10:54:38;13.63;;;3.08;;
53108;SDS011;39007;53.090;6.074;2022-10-16T10:57:09;17.10;;;3.33;;
53108;SDS011;39007;53.090;6.074;2022-10-16T11:07:11;17.80;;;3.30;;
53108;SDS011;39007;53.090;6.074;2022-10-16T11:09:41;19.08;;;3.13;;
53108;SDS011;39007;53.090;6.074;2022-10-16T11:12:19;12.20;;;2.75;;
53108;SDS011;39007;53.090;6.074;2022-10-16T11:15:00;18.77;;;3.17;;
53108;SDS011;39007;53.090;6.074;2022-10-16T11:19:56;13.68;;;2.92;;
53108;SDS011;39007;53.090;6.074;2022-10-16T11:27:43;20.58;;;4.03;;
53108;SDS011;39007;53.090;6.074;2022-10-16T11:30:16;14.82;;;3.30;;
53108;SDS011;39007;53.090;6.074;2022-10-16T11:35:38;15.60;;;3.30;;
53108;SDS011;39007;53.090;6.074;2022-10-16T11:40:56;18.38;;;3.97;;
53108;SDS011;39007;53.090;6.074;2022-10-16T11:43:26;19.80;;;3.55;;
53108;SDS011;39007;53.090;6.074;2022-10-16T11:45:54;19.27;;;3.80;;
53108;SDS011;39007;53.090;6.074;2022-10-16T11:48:23;16.15;;;3.35;;
53108;SDS011;39007;53.090;6.074;2022-10-16T11:50:54;16.77;;;3.55;;
53108;SDS011;39007;53.090;6.074;2022-10-16T11:53:27;13.85;;;3.22;;
53108;SDS011;39007;53.090;6.074;2022-10-16T11:55:57;19.75;;;3.85;;
53108;SDS011;39007;53.090;6.074;2022-10-16T11:58:28;18.38;;;2.85;;
53108;SDS011;39007;53.090;6.074;2022-10-16T12:03:33;14.98;;;3.50;;
53108;SDS011;39007;53.090;6.074;2022-10-16T12:08:34;17.40;;;3.25;;
53108;SDS011;39007;53.090;6.074;2022-10-16T12:11:08;17.27;;;3.67;;
53108;SDS011;39007;53.090;6.074;2022-10-16T12:13:38;13.88;;;3.30;;
53108;SDS011;39007;53.090;6.074;2022-10-16T12:16:05;15.30;;;3.45;;
53108;SDS011;39007;53.090;6.074;2022-10-16T12:18:32;20.40;;;3.42;;
53108;SDS011;39007;53.090;6.074;2022-10-16T12:20:58;15.52;;;3.15;;
53108;SDS011;39007;53.090;6.074;2022-10-16T12:23:29;16.27;;;3.45;;
53108;SDS011;39007;53.090;6.074;2022-10-16T12:25:57;16.70;;;3.30;;
53108;SDS011;39007;53.090;6.074;2022-10-16T12:28:27;17.13;;;3.47;;
53108;SDS011;39007;53.090;6.074;2022-10-16T12:31:12;14.65;;;3.38;;
53108;SDS011;39007;53.090;6.074;2022-10-16T12:33:43;14.55;;;2.92;;
53108;SDS011;39007;53.090;6.074;2022-10-16T12:36:26;20.38;;;3.33;;
53108;SDS011;39007;53.090;6.074;2022-10-16T12:38:53;15.38;;;3.03;;
53108;SDS011;39007;53.090;6.074;2022-10-16T12:43:58;11.60;;;2.70;;
53108;SDS011;39007;53.090;6.074;2022-10-16T12:49:05;12.30;;;2.80;;
53108;SDS011;39007;53.090;6.074;2022-10-16T12:56:39;13.18;;;2.95;;
53108;SDS011;39007;53.090;6.074;2022-10-16T13:06:52;15.65;;;3.15;;
53108;SDS011;39007;53.090;6.074;2022-10-16T13:16:49;13.55;;;2.83;;
53108;SDS011;39007;53.090;6.074;2022-10-16T13:29:06;11.50;;;2.80;;
53108;SDS011;39007;53.090;6.074;2022-10-16T13:31:32;19.95;;;3.10;;
53108;SDS011;39007;53.090;6.074;2022-10-16T13:33:59;12.52;;;2.70;;
53108;SDS011;39007;53.090;6.074;2022-10-16T13:36:27;16.27;;;3.47;;
53108;SDS011;39007;53.090;6.074;2022-10-16T13:39:01;11.43;;;2.47;;
53108;SDS011;39007;53.090;6.074;2022-10-16T13:43:55;17.23;;;3.63;;
53108;SDS011;39007;53.090;6.074;2022-10-16T13:46:23;17.23;;;2.95;;
53108;SDS011;39007;53.090;6.074;2022-10-16T13:48:56;14.10;;;3.03;;
53108;SDS011;39007;53.090;6.074;2022-10-16T13:51:23;13.02;;;3.05;;
53108;SDS011;39007;53.090;6.074;2022-10-16T13:53:49;12.85;;;2.90;;
53108;SDS011;39007;53.090;6.074;2022-10-16T13:56:16;17.98;;;3.40;;
53108;SDS011;39007;53.090;6.074;2022-10-16T13:58:42;15.15;;;3.00;;
53108;SDS011;39007;53.090;6.074;2022-10-16T14:01:16;11.98;;;2.65;;
53108;SDS011;39007;53.090;6.074;2022-10-16T14:03:43;16.55;;;2.95;;
53108;SDS011;39007;53.090;6.074;2022-10-16T14:06:14;17.40;;;3.00;;
53108;SDS011;39007;53.090;6.074;2022-10-16T14:08:48;15.85;;;2.83;;
53108;SDS011;39007;53.090;6.074;2022-10-16T14:11:20;13.63;;;2.83;;
53108;SDS011;39007;53.090;6.074;2022-10-16T14:13:47;16.23;;;3.17;;
53108;SDS011;39007;53.090;6.074;2022-10-16T14:16:18;17.73;;;3.40;;
53108;SDS011;39007;53.090;6.074;2022-10-16T14:18:45;16.60;;;3.15;;
53108;SDS011;39007;53.090;6.074;2022-10-16T14:21:12;14.63;;;2.75;;
53108;SDS011;39007;53.090;6.074;2022-10-16T14:23:40;13.60;;;2.92;;
53108;SDS011;39007;53.090;6.074;2022-10-16T14:26:11;15.50;;;3.72;;
53108;SDS011;39007;53.090;6.074;2022-10-16T14:28:41;16.77;;;2.78;;
53108;SDS011;39007;53.090;6.074;2022-10-16T14:33:43;15.02;;;2.83;;
53108;SDS011;39007;53.090;6.074;2022-10-16T14:38:35;16.85;;;2.80;;
53108;SDS011;39007;53.090;6.074;2022-10-16T14:41:02;16.73;;;2.90;;
53108;SDS011;39007;53.090;6.074;2022-10-16T14:43:33;17.92;;;2.75;;
53108;SDS011;39007;53.090;6.074;2022-10-16T14:45:59;18.80;;;2.95;;
53108;SDS011;39007;53.090;6.074;2022-10-16T14:48:27;13.57;;;2.67;;
53108;SDS011;39007;53.090;6.074;2022-10-16T14:50:53;15.02;;;2.92;;
53108;SDS011;39007;53.090;6.074;2022-10-16T14:53:19;13.95;;;3.00;;
53108;SDS011;39007;53.090;6.074;2022-10-16T14:55:46;18.17;;;3.30;;
53108;SDS011;39007;53.090;6.074;2022-10-16T14:58:16;18.20;;;2.78;;
53108;SDS011;39007;53.090;6.074;2022-10-16T15:00:43;16.58;;;2.70;;
53108;SDS011;39007;53.090;6.074;2022-10-16T15:03:09;16.60;;;2.78;;
53108;SDS011;39007;53.090;6.074;2022-10-16T15:05:35;17.13;;;3.22;;
53108;SDS011;39007;53.090;6.074;2022-10-16T15:08:01;13.95;;;2.80;;
53108;SDS011;39007;53.090;6.074;2022-10-16T15:10:29;16.73;;;3.45;;
53108;SDS011;39007;53.090;6.074;2022-10-16T15:13:00;12.10;;;2.70;;
53108;SDS011;39007;53.090;6.074;2022-10-16T15:15:28;13.63;;;3.17;;
53108;SDS011;39007;53.090;6.074;2022-10-16T15:17:56;12.70;;;2.78;;
53108;SDS011;39007;53.090;6.074;2022-10-16T15:20:29;17.10;;;3.25;;
53108;SDS011;39007;53.090;6.074;2022-10-16T15:22:58;15.57;;;2.92;;
53108;SDS011;39007;53.090;6.074;2022-10-16T15:25:32;13.88;;;3.00;;
53108;SDS011;39007;53.090;6.074;2022-10-16T15:27:59;14.63;;;3.15;;
53108;SDS011;39007;53.090;6.074;2022-10-16T15:30:26;17.10;;;3.40;;
53108;SDS011;39007;53.090;6.074;2022-10-16T15:32:52;15.55;;;3.05;;
53108;SDS011;39007;53.090;6.074;2022-10-16T15:35:18;14.10;;;2.72;;
53108;SDS011;39007;53.090;6.074;2022-10-16T15:37:46;15.52;;;3.08;;
53108;SDS011;39007;53.090;6.074;2022-10-16T15:40:12;15.73;;;3.15;;
53108;SDS011;39007;53.090;6.074;2022-10-16T15:42:38;22.50;;;3.28;;
53108;SDS011;39007;53.090;6.074;2022-10-16T15:45:05;13.95;;;2.97;;
53108;SDS011;39007;53.090;6.074;2022-10-16T15:47:31;19.42;;;3.03;;
53108;SDS011;39007;53.090;6.074;2022-10-16T15:49:58;18.52;;;2.75;;
53108;SDS011;39007;53.090;6.074;2022-10-16T15:52:24;19.02;;;3.45;;
53108;SDS011;39007;53.090;6.074;2022-10-16T15:54:50;16.75;;;2.95;;
53108;SDS011;39007;53.090;6.074;2022-10-16T15:57:16;16.50;;;2.47;;
53108;SDS011;39007;53.090;6.074;2022-10-16T15:59:42;11.65;;;2.63;;
53108;SDS011;39007;53.090;6.074;2022-10-16T16:02:09;15.57;;;3.28;;
53108;SDS011;39007;53.090;6.074;2022-10-16T16:04:35;14.07;;;2.72;;
53108;SDS011;39007;53.090;6.074;2022-10-16T16:07:01;20.77;;;3.25;;
53108;SDS011;39007;53.090;6.074;2022-10-16T16:09:30;14.85;;;2.88;;
53108;SDS011;39007;53.090;6.074;2022-10-16T16:11:56;12.40;;;2.97;;
53108;SDS011;39007;53.090;6.074;2022-10-16T16:14:25;15.82;;;2.92;;
53108;SDS011;39007;53.090;6.074;2022-10-16T16:16:53;18.30;;;2.90;;
53108;SDS011;39007;53.090;6.074;2022-10-16T16:19:19;12.30;;;2.85;;
53108;SDS011;39007;53.090;6.074;2022-10-16T16:21:46;40.38;;;25.35;;
53108;SDS011;39007;53.090;6.074;2022-10-16T16:24:12;17.38;;;7.97;;
53108;SDS011;39007;53.090;6.074;2022-10-16T16:26:38;15.50;;;3.45;;
53108;SDS011;39007;53.090;6.074;2022-10-16T16:29:09;13.50;;;3.10;;
53108;SDS011;39007;53.090;6.074;2022-10-16T16:31:37;15.93;;;2.95;;
53108;SDS011;39007;53.090;6.074;2022-10-16T16:34:04;13.07;;;2.50;;
53108;SDS011;39007;53.090;6.074;2022-10-16T16:36:30;12.35;;;3.00;;